Time;durP1;ratioP1;P1;durP2;ratioP2;P2;SDS_P1;SDS_P2;PMS_P1;PMS_P2;Temp;Humidity;BMP_temperature;BMP_pressure;BME280_temperature;BME280_humidity;BME280_pressure;Samples;Min_cycle;Max_cycle;Signal;HPM_P1;HPM_P2
2022/06/08 03:36:21;;;;;;;;;;;;;;;8.67;100.00;99134.59;6314504;22;19930;-87
2022/06/08 03:38:54;;;;;;;;;;;;;;;8.24;100.00;99139.13;6310488;22;19960;-87
2022/06/08 03:41:20;;;;;;;;;;;;;;;8.50;100.00;99128.31;6337973;22;19914;-87
2022/06/08 03:59:13;;;;;;;;;;;;;;;8.57;100.00;99130.66;5924063;24;19944;-88
2022/06/08 04:01:38;;;;;;;;;;;;;;;8.65;100.00;99129.41;5979337;24;20395;-87
2022/06/08 04:04:06;;;;;;;;;;;;;;;8.33;100.00;99133.44;6031830;23;19917;-87
2022/06/08 04:06:31;;;;;;;;;;;;;;;8.54;100.00;99129.03;6179605;22;19922;-88
2022/06/08 04:08:59;;;;;;;;;;;;;;;8.71;100.00;99134.41;6339411;22;19914;-88
2022/06/08 04:11:24;;;;;;;;;;;;;;;8.23;100.00;99135.59;6311733;22;19985;-89
2022/06/08 04:13:49;;;;;;;;;;;;;;;8.43;100.00;99125.97;6312260;22;20268;-90
2022/06/08 04:16:19;;;;;;;;;;;;;;;8.63;100.00;99117.19;6311865;22;20238;-89
2022/06/08 04:18:45;;;;;;;;;;;;;;;8.58;100.00;99121.81;6311654;22;19993;-88
2022/06/08 04:21:10;;;;;;;;;;;;;;;8.42;100.00;99117.19;6338068;22;19957;-87
2022/06/08 04:23:37;;;;;;;;;;;;;;;8.63;100.00;99114.53;6311747;22;20322;-87
2022/06/08 04:26:03;;;;;;;;;;;;;;;8.72;100.00;99112.31;6339634;22;19946;-86
2022/06/08 04:28:31;;;;;;;;;;;;;;;8.39;100.00;99108.53;6311512;22;19917;-87
2022/06/08 04:30:58;;;;;;;;;;;;;;;8.57;100.00;99102.47;6311985;22;19989;-87
2022/06/08 04:33:31;;;;;;;;;;;;;;;8.70;100.00;99102.78;6311348;22;20279;-87
2022/06/08 04:35:56;;;;;;;;;;;;;;;8.36;100.00;99091.09;6329550;22;19923;-87
2022/06/08 04:38:22;;;;;;;;;;;;;;;8.54;100.00;99106.09;6280494;22;19993;-85
2022/06/08 04:40:48;;;;;;;;;;;;;;;8.71;100.00;99097.44;6308006;22;19953;-86
2022/06/08 04:43:18;;;;;;;;;;;;;;;8.41;100.00;99102.28;6308031;22;19910;-86
2022/06/08 04:45:44;;;;;;;;;;;;;;;8.49;100.00;99107.25;6307920;22;19915;-86
2022/06/08 04:48:09;;;;;;;;;;;;;;;8.66;100.00;99095.91;6307709;22;19998;-86
2022/06/08 07:49:51;;;;;;;;;;;;;;;10.79;100.00;98951.00;6317403;22;19961;-87
2022/06/08 07:52:57;;;;;;;;;;;;;;;12.84;100.00;98943.84;6339023;22;19914;-90
2022/06/08 07:55:23;;;;;;;;;;;;;;;11.97;100.00;98947.63;6292701;22;19918;-92
2022/06/08 07:57:51;;;;;;;;;;;;;;;10.86;100.00;98943.53;6312427;22;19914;-92
2022/06/08 08:00:17;;;;;;;;;;;;;;;10.90;100.00;98940.63;6340132;22;19986;-93
2022/06/08 08:02:43;;;;;;;;;;;;;;;10.53;100.00;98939.25;6310306;22;19922;-93
2022/06/08 08:05:12;;;;;;;;;;;;;;;10.23;100.00;98936.44;6339620;22;19914;-94
2022/06/08 08:07:38;;;;;;;;;;;;;;;10.36;100.00;98938.38;6339610;22;19914;-93
2022/06/08 08:10:05;;;;;;;;;;;;;;;9.91;100.00;98925.84;6312201;22;20229;-92
2022/06/08 08:12:30;;;;;;;;;;;;;;;9.88;100.00;98926.84;6339490;22;20257;-91
2022/06/08 08:14:55;;;;;;;;;;;;;;;10.13;100.00;98913.13;6339541;22;19918;-92
2022/06/08 08:17:21;;;;;;;;;;;;;;;9.85;100.00;98910.28;6338147;22;19910;-90
2022/06/08 08:19:46;;;;;;;;;;;;;;;9.55;100.00;98911.81;6312282;22;19917;-92
2022/06/08 08:22:14;;;;;;;;;;;;;;;9.88;100.00;98905.69;6339760;22;20452;-93
2022/06/08 08:24:39;;;;;;;;;;;;;;;10.15;100.00;98905.13;6312236;22;19937;-91
2022/06/08 08:27:04;;;;;;;;;;;;;;;9.47;100.00;98905.22;6339395;22;19911;-91
2022/06/08 08:29:30;;;;;;;;;;;;;;;9.87;100.00;98896.03;6312306;22;19914;-88
2022/06/08 08:31:56;;;;;;;;;;;;;;;9.89;100.00;98894.16;6339028;22;19918;-91
2022/06/08 08:34:27;;;;;;;;;;;;;;;8.92;100.00;98893.91;6337571;22;19915;-91
2022/06/08 08:36:53;;;;;;;;;;;;;;;8.56;97.98;98896.59;6339156;22;19918;-91
2022/06/08 08:39:19;;;;;;;;;;;;;;;8.38;96.33;98896.53;6311970;22;19911;-90
2022/06/08 08:44:38;;;;;;;;;;;;;;;9.37;100.00;98879.25;6339073;22;19961;-90
2022/06/08 08:47:14;;;;;;;;;;;;;;;9.10;99.93;98878.91;6339116;22;19946;-91
2022/06/08 08:49:43;;;;;;;;;;;;;;;8.83;99.61;98882.00;6312001;22;19956;-92
2022/06/08 08:52:22;;;;;;;;;;;;;;;9.43;100.00;98883.41;6309644;22;19946;-90
2022/06/08 08:54:52;;;;;;;;;;;;;;;9.13;100.00;98881.41;6307979;22;19965;-89
2022/06/08 08:57:28;;;;;;;;;;;;;;;8.36;97.86;98885.19;6308003;22;20230;-90
2022/06/08 08:59:54;;;;;;;;;;;;;;;8.14;96.14;98886.19;6258373;22;19938;-89
2022/06/08 09:05:17;;;;;;;;;;;;;;;9.10;99.71;98876.28;6276095;22;19922;-90
2022/06/08 09:07:43;;;;;;;;;;;;;;;9.12;100.00;98884.13;6276516;22;19970;-87
2022/06/08 09:10:19;;;;;;;;;;;;;;;8.38;98.36;98888.59;6276366;22;19911;-86
2022/06/08 09:12:44;;;;;;;;;;;;;;;8.02;96.28;98891.19;6277034;22;19911;-89
2022/06/08 09:15:10;;;;;;;;;;;;;;;7.98;94.64;98883.41;6249832;22;19919;-87
2022/06/08 09:17:40;;;;;;;;;;;;;;;7.86;94.00;98875.22;6248697;22;19911;-88
2022/06/08 09:20:26;;;;;;;;;;;;;;;8.37;97.74;98877.16;6276802;22;19915;-89
2022/06/08 09:22:53;;;;;;;;;;;;;;;9.09;100.00;98866.63;6255270;22;20232;-87
2022/06/08 09:25:26;;;;;;;;;;;;;;;8.78;100.00;98864.69;6249699;22;19911;-88
2022/06/08 09:27:59;;;;;;;;;;;;;;;8.85;100.00;98860.81;6276518;22;19917;-91
2022/06/08 09:30:32;;;;;;;;;;;;;;;9.26;100.00;98855.19;6248637;22;20327;-87
2022/06/08 09:32:59;;;;;;;;;;;;;;;9.00;100.00;98849.47;6248188;22;19919;-89
2022/06/08 09:35:29;;;;;;;;;;;;;;;8.25;98.93;98853.16;6276615;22;20004;-88
2022/06/08 09:37:57;;;;;;;;;;;;;;;8.89;100.00;98850.00;6275754;22;20389;-86
2022/06/08 09:40:36;;;;;;;;;;;;;;;9.29;100.00;98843.59;6276633;22;19993;-87
2022/06/08 09:43:02;;;;;;;;;;;;;;;8.57;100.00;98846.34;6276280;22;20281;-88
2022/06/08 09:45:43;;;;;;;;;;;;;;;8.13;98.59;98844.88;6276312;22;19923;-89
2022/06/08 09:51:25;;;;;;;;;;;;;;;8.89;100.00;98842.06;6276465;22;20024;-87
2022/06/08 09:54:12;;;;;;;;;;;;;;;9.03;100.00;98837.88;6276523;22;19918;-93
2022/06/08 09:56:56;;;;;;;;;;;;;;;8.38;100.00;98843.72;6275494;22;19969;-89
2022/06/08 09:59:30;;;;;;;;;;;;;;;9.11;100.00;98833.06;6277395;22;19982;-94
2022/06/08 10:01:59;;;;;;;;;;;;;;;9.22;100.00;98836.00;6218835;23;19915;-90
2022/06/08 10:04:35;;;;;;;;;;;;;;;8.81;100.00;98830.22;6244656;23;19911;-89
2022/06/08 10:07:15;;;;;;;;;;;;;;;9.32;100.00;98831.06;6245416;23;20383;-89
2022/06/08 10:09:59;;;;;;;;;;;;;;;8.91;100.00;98829.63;6219003;23;20014;-88
2022/06/08 10:12:30;;;;;;;;;;;;;;;8.90;100.00;98827.94;6245957;23;19908;-87
2022/06/08 10:14:55;;;;;;;;;;;;;;;9.24;100.00;98835.91;6218904;23;19915;-90
2022/06/08 10:17:29;;;;;;;;;;;;;;;8.69;100.00;98824.59;6243955;23;20034;-87
2022/06/08 10:20:13;;;;;;;;;;;;;;;9.22;100.00;98821.91;6245505;23;19915;-89
2022/06/08 10:22:43;;;;;;;;;;;;;;;8.93;100.00;98820.78;6245211;23;19998;-88
2022/06/08 10:25:27;;;;;;;;;;;;;;;8.48;100.00;98818.59;6245392;23;19943;-89
2022/06/08 10:27:54;;;;;;;;;;;;;;;9.23;100.00;98808.59;6218430;23;19919;-87
2022/06/08 10:30:34;;;;;;;;;;;;;;;8.94;100.00;98815.44;6218816;23;19923;-88
2022/06/08 10:33:00;;;;;;;;;;;;;;;8.83;100.00;98813.31;6243990;23;19962;-89
2022/06/08 10:35:48;;;;;;;;;;;;;;;9.35;100.00;98811.53;6218858;23;19935;-93
2022/06/08 10:38:27;;;;;;;;;;;;;;;9.09;100.00;98805.84;6218497;23;19993;-90
2022/06/08 10:42:39;;;;;;;;;;;;;;;8.79;100.00;98806.50;6245231;23;19943;-91
2022/06/08 10:43:50;;;;;;;;;;;;;;;9.22;100.00;98809.56;6245429;23;19975;-90
2022/06/08 10:46:55;;;;;;;;;;;;;;;9.07;100.00;98805.06;6245196;23;19918;-89
2022/06/08 10:49:46;;;;;;;;;;;;;;;8.64;100.00;98804.63;6200131;23;19930;-93
2022/06/08 10:52:28;;;;;;;;;;;;;;;9.23;100.00;98795.38;6228354;23;19922;-91
2022/06/08 10:55:23;;;;;;;;;;;;;;;8.60;100.00;98792.50;6217377;23;19918;-90
2022/06/08 10:57:56;;;;;;;;;;;;;;;9.08;100.00;98790.94;6239597;23;19912;-90
2022/06/08 11:03:04;;;;;;;;;;;;;;;8.33;99.26;98791.16;6331097;22;19998;-89
2022/06/08 11:05:34;;;;;;;;;;;;;;;9.07;100.00;98790.06;6310665;22;20323;-89
2022/06/08 11:08:04;;;;;;;;;;;;;;;9.23;100.00;98789.25;6310444;22;19910;-90
2022/06/08 11:10:43;;;;;;;;;;;;;;;8.59;99.73;98783.75;6309569;22;19916;-89
2022/06/08 11:13:18;;;;;;;;;;;;;;;8.39;99.62;98787.34;6310285;22;19963;-89
2022/06/08 11:15:47;;;;;;;;;;;;;;;8.98;100.00;98792.34;6337265;22;19915;-91
2022/06/08 11:18:16;;;;;;;;;;;;;;;9.02;100.00;98796.53;6308616;22;20271;-90
2022/06/08 11:20:47;;;;;;;;;;;;;;;8.45;99.78;98804.69;6310069;22;20001;-91
2022/06/08 11:23:23;;;;;;;;;;;;;;;9.02;100.00;98809.75;6337713;22;19938;-90
2022/06/08 11:26:11;;;;;;;;;;;;;;;9.24;100.00;98817.41;6337991;22;19914;-89
2022/06/08 11:29:16;;;;;;;;;;;;;;;;;;;;;
2022/06/08 11:31:41;;;;;;;;;;;;;;;9.17;100.00;98827.44;6337486;22;19994;-90
2022/06/08 11:34:09;;;;;;;;;;;;;;;8.85;100.00;98829.09;6336228;22;19945;-91
2022/06/08 11:36:41;;;;;;;;;;;;;;;8.70;100.00;98828.09;6309300;22;19910;-92
2022/06/08 11:42:25;;;;;;;;;;;;;;;8.59;100.00;98846.28;6334946;22;20383;-90
2022/06/08 11:44:52;;;;;;;;;;;;;;;9.04;100.00;98844.88;6310474;22;19915;-90
2022/06/08 11:47:28;;;;;;;;;;;;;;;9.32;100.00;98838.13;6308674;22;19915;-92
2022/06/08 11:49:59;;;;;;;;;;;;;;;8.52;100.00;98845.69;6309735;22;20234;-92
2022/06/08 11:55:10;;;;;;;;;;;;;;;9.34;100.00;98842.41;6275000;22;19923;-92
2022/06/08 11:57:38;;;;;;;;;;;;;;;8.82;100.00;98840.69;6248513;22;19972;-91
2022/06/08 12:00:06;;;;;;;;;;;;;;;9.24;100.00;98835.91;6248453;22;19989;-92
2022/06/08 12:02:39;;;;;;;;;;;;;;;9.37;100.00;98839.59;6273754;22;20240;-91
2022/06/08 12:05:07;;;;;;;;;;;;;;;8.59;99.67;98841.00;6248522;22;19989;-90
2022/06/08 12:08:01;;;;;;;;;;;;;;;;;;;;;
2022/06/08 12:10:31;;;;;;;;;;;;;;;9.31;100.00;98842.56;6275536;22;20058;-89
2022/06/08 12:12:58;;;;;;;;;;;;;;;8.51;100.00;98849.28;6248549;22;20349;-88
2022/06/08 12:15:27;;;;;;;;;;;;;;;9.14;100.00;98847.88;6248504;22;20226;-91
2022/06/08 12:17:53;;;;;;;;;;;;;;;9.32;100.00;98838.13;6273866;22;19997;-92
2022/06/08 12:20:39;;;;;;;;;;;;;;;8.78;100.00;98840.94;6247841;22;19915;-91
2022/06/08 12:23:04;;;;;;;;;;;;;;;9.22;100.00;98843.06;6274157;22;19919;-91
2022/06/08 12:25:31;;;;;;;;;;;;;;;9.17;100.00;98839.78;6275436;22;20304;-91
2022/06/08 12:28:05;;;;;;;;;;;;;;;8.65;100.00;98843.31;6276710;22;19915;-90
2022/06/08 12:30:35;;;;;;;;;;;;;;;9.22;100.00;98843.94;6250141;22;19911;-90
2022/06/08 12:33:02;;;;;;;;;;;;;;;9.22;100.00;98835.13;6275658;22;19994;-91
2022/06/08 12:35:35;;;;;;;;;;;;;;;8.83;100.00;98837.09;6277111;22;20298;-90
2022/06/08 12:38:16;;;;;;;;;;;;;;;9.20;100.00;98840.47;6249580;22;19915;-90
2022/06/08 12:40:42;;;;;;;;;;;;;;;8.83;100.00;98839.75;6277053;22;19911;-91
2022/06/08 12:45:45;;;;;;;;;;;;;;;9.26;100.00;98845.44;6277514;22;19919;-90
2022/06/08 12:48:22;;;;;;;;;;;;;;;8.96;100.00;98847.06;6245018;22;20379;-91
2022/06/08 12:50:48;;;;;;;;;;;;;;;8.85;100.00;98843.16;6249681;22;19972;-89
2022/06/08 12:53:16;;;;;;;;;;;;;;;9.22;100.00;98849.22;6277200;22;20346;-90
2022/06/08 12:55:42;;;;;;;;;;;;;;;9.12;100.00;98853.25;6249903;22;19922;-90
2022/06/08 12:58:09;;;;;;;;;;;;;;;8.95;100.00;98846.22;6249887;22;20315;-88
2022/06/08 13:00:36;;;;;;;;;;;;;;;9.25;100.00;98850.81;6276775;22;19923;-91
2022/06/08 13:03:10;;;;;;;;;;;;;;;8.89;100.00;98857.09;6274940;22;20297;-88
2022/06/08 13:05:35;;;;;;;;;;;;;;;8.98;100.00;98858.38;6276946;22;20324;-90
2022/06/08 13:08:01;;;;;;;;;;;;;;;9.43;100.00;98867.53;6249507;22;19922;-90
2022/06/08 13:10:28;;;;;;;;;;;;;;;8.98;100.00;98861.88;6276938;22;19915;-91
2022/06/08 13:12:58;;;;;;;;;;;;;;;8.98;100.00;98859.22;6249435;22;19953;-91
2022/06/08 13:15:28;;;;;;;;;;;;;;;9.34;100.00;98857.44;6276705;22;19911;-89
2022/06/08 13:17:57;;;;;;;;;;;;;;;8.99;100.00;98852.19;6274885;22;19939;-90
2022/06/08 13:20:24;;;;;;;;;;;;;;;8.84;100.00;98856.44;6276546;22;19915;-90
2022/06/08 13:22:50;;;;;;;;;;;;;;;9.30;100.00;98854.06;6249846;22;20120;-89
2022/06/08 13:25:16;;;;;;;;;;;;;;;9.01;100.00;98853.78;6249851;22;20315;-91
2022/06/08 13:27:48;;;;;;;;;;;;;;;8.46;100.00;98854.78;6249242;22;19911;-88
2022/06/08 13:30:25;;;;;;;;;;;;;;;9.19;100.00;98848.50;6249565;22;19915;-90
2022/06/08 13:32:50;;;;;;;;;;;;;;;9.47;100.00;98852.34;6248030;22;19919;-89
2022/06/08 13:35:17;;;;;;;;;;;;;;;8.49;100.00;98849.34;6276747;22;20009;-89
2022/06/08 13:37:43;;;;;;;;;;;;;;;8.08;97.97;98854.81;6249449;22;19994;-90
2022/06/08 13:40:14;;;;;;;;;;;;;;;8.74;100.00;98842.84;6276325;22;20413;-89
2022/06/08 13:42:40;;;;;;;;;;;;;;;9.15;100.00;98853.09;6249253;22;19938;-90
2022/06/08 13:45:05;;;;;;;;;;;;;;;8.49;100.00;98846.72;6251656;22;19920;-90
2022/06/08 13:47:34;;;;;;;;;;;;;;;8.93;100.00;98852.50;6217049;23;20316;-90
2022/06/08 13:50:11;;;;;;;;;;;;;;;9.29;100.00;98849.75;6219346;23;20191;-90
2022/06/08 13:52:37;;;;;;;;;;;;;;;8.40;100.00;98857.69;6246088;23;19911;-88
2022/06/08 13:55:07;;;;;;;;;;;;;;;8.63;100.00;98858.38;6245537;23;19915;-89
2022/06/08 13:57:33;;;;;;;;;;;;;;;9.01;100.00;98845.03;6245470;23;19945;-88
2022/06/08 13:59:58;;;;;;;;;;;;;;;8.89;100.00;98842.06;6218925;23;19924;-88
2022/06/08 14:02:33;;;;;;;;;;;;;;;8.31;100.00;98847.56;6217514;23;19912;-89
2022/06/08 14:04:58;;;;;;;;;;;;;;;8.97;100.00;98846.97;6245906;23;19907;-89
2022/06/08 14:13:04;;;;;;;;;;;;;;;8.79;100.00;98855.81;6276142;22;19942;-91
2022/06/08 14:15:29;;;;;;;;;;;;;;;9.14;100.00;98850.53;6249411;22;19961;-88
2022/06/08 14:17:55;;;;;;;;;;;;;;;8.51;100.00;98850.13;6247198;22;19911;-89
2022/06/08 14:20:23;;;;;;;;;;;;;;;7.99;98.64;98849.97;6275911;22;19926;-88
2022/06/08 14:22:48;;;;;;;;;;;;;;;7.90;97.83;98855.69;6276032;22;19969;-87
2022/06/08 14:25:15;;;;;;;;;;;;;;;8.85;100.00;98856.38;6276022;22;20327;-88
2022/06/08 14:27:40;;;;;;;;;;;;;;;9.12;100.00;98857.69;6249005;22;19915;-87
2022/06/08 14:30:07;;;;;;;;;;;;;;;8.28;99.60;98861.78;6275924;22;20297;-89
2022/06/08 14:32:39;;;;;;;;;;;;;;;7.84;97.48;98863.91;6247358;22;19915;-89
2022/06/08 14:35:07;;;;;;;;;;;;;;;8.00;97.95;98857.81;6275659;22;19926;-88
2022/06/08 14:37:34;;;;;;;;;;;;;;;8.79;100.00;98854.06;6275412;22;20743;-90
2022/06/08 14:39:59;;;;;;;;;;;;;;;9.05;100.00;98851.88;6276055;22;19911;-88
2022/06/08 14:42:25;;;;;;;;;;;;;;;8.24;99.87;98859.38;6248781;22;20358;-90
2022/06/08 14:44:51;;;;;;;;;;;;;;;8.69;100.00;98853.63;6248618;22;20005;-89
2022/06/08 14:47:19;;;;;;;;;;;;;;;9.14;100.00;98855.81;6247770;22;19958;-88
2022/06/08 14:49:47;;;;;;;;;;;;;;;9.01;100.00;98842.38;6276465;22;19957;-87
2022/06/08 14:52:16;;;;;;;;;;;;;;;8.93;100.00;98844.56;6275956;22;19930;-87
2022/06/08 14:54:41;;;;;;;;;;;;;;;9.19;100.00;98841.44;6275666;22;19919;-88
2022/06/08 14:57:12;;;;;;;;;;;;;;;8.87;100.00;98836.03;6249113;22;19911;-89
2022/06/08 14:59:38;;;;;;;;;;;;;;;9.08;100.00;98844.63;6248999;22;19912;-88
2022/06/08 15:02:09;;;;;;;;;;;;;;;9.29;100.00;98838.31;6248256;22;19965;-90
2022/06/08 15:04:35;;;;;;;;;;;;;;;8.64;100.00;98852.19;6274526;22;20385;-89
2022/06/08 15:07:00;;;;;;;;;;;;;;;9.15;100.00;98845.16;6248707;22;20354;-88
2022/06/08 15:09:25;;;;;;;;;;;;;;;9.42;100.00;98849.94;6248732;22;19959;-89
2022/06/08 15:12:00;;;;;;;;;;;;;;;8.63;100.00;98858.38;6290452;22;20243;-87
2022/06/08 15:14:28;;;;;;;;;;;;;;;9.12;100.00;98853.25;6279070;22;20029;-89
2022/06/08 15:16:54;;;;;;;;;;;;;;;9.33;100.00;98855.72;6279244;22;20020;-89
2022/06/08 15:19:24;;;;;;;;;;;;;;;8.67;100.00;98847.59;6305415;22;19919;-89
2022/06/08 15:21:51;;;;;;;;;;;;;;;9.22;100.00;98848.34;6279299;22;20306;-90
2022/06/08 15:24:17;;;;;;;;;;;;;;;9.37;100.00;98846.69;6306889;22;19911;-87
2022/06/08 15:26:44;;;;;;;;;;;;;;;8.81;100.00;98838.13;6306578;22;19949;-88
2022/06/08 15:29:14;;;;;;;;;;;;;;;9.13;100.00;98838.28;6277750;22;19918;-88
2022/06/08 15:31:59;;;;;;;;;;;;;;;9.37;100.00;98838.75;6281188;22;19918;-95
2022/06/08 15:40:34;;;;;;;;;;;;;;;9.52;100.00;98840.56;6276548;22;20002;-90
2022/06/08 15:43:00;;;;;;;;;;;;;;;8.83;100.00;98831.81;6247760;22;19915;-88
2022/06/08 15:45:26;;;;;;;;;;;;;;;9.33;100.00;98837.22;6273994;22;19961;-89
2022/06/08 15:48:05;;;;;;;;;;;;;;;9.43;100.00;98836.66;6273397;22;19915;-88
2022/06/08 15:50:32;;;;;;;;;;;;;;;8.94;100.00;98828.63;6273318;22;19915;-90
2022/06/08 15:52:59;;;;;;;;;;;;;;;9.28;100.00;98834.81;6272428;22;20342;-90
2022/06/08 15:55:29;;;;;;;;;;;;;;;9.48;100.00;98836.41;6273826;22;19921;-89
2022/06/08 15:57:55;;;;;;;;;;;;;;;8.95;100.00;98837.41;6246329;22;20535;-89
2022/06/08 16:00:24;;;;;;;;;;;;;;;9.41;100.00;98835.00;6273203;22;19915;-88
2022/06/08 16:02:50;;;;;;;;;;;;;;;9.61;100.00;98833.94;6272894;22;20323;-91
2022/06/08 16:05:15;;;;;;;;;;;;;;;8.89;100.00;98836.78;6246368;22;19949;-89
2022/06/08 16:07:42;;;;;;;;;;;;;;;9.34;100.00;98841.56;6248878;22;19911;-90
2022/06/08 16:10:08;;;;;;;;;;;;;;;9.39;100.00;98839.53;6248415;22;19915;-92
2022/06/08 16:12:33;;;;;;;;;;;;;;;8.70;100.00;98833.38;6274483;22;20220;-90
2022/06/08 16:15:01;;;;;;;;;;;;;;;9.25;100.00;98825.25;6274845;22;19937;-92
2022/06/08 16:17:27;;;;;;;;;;;;;;;9.48;100.00;98828.47;6247437;22;19942;-92
2022/06/08 16:19:53;;;;;;;;;;;;;;;8.72;100.00;98828.88;6249141;22;19954;-90
2022/06/08 16:22:18;;;;;;;;;;;;;;;9.18;100.00;98829.16;6249053;22;20235;-91
2022/06/08 16:24:44;;;;;;;;;;;;;;;9.39;100.00;98823.66;6249204;22;20349;-88
2022/06/08 16:27:11;;;;;;;;;;;;;;;9.02;100.00;98830.88;6248224;22;19911;-89
2022/06/08 16:29:36;;;;;;;;;;;;;;;9.40;100.00;98833.31;6275600;22;20298;-90
2022/06/08 16:32:03;;;;;;;;;;;;;;;9.34;100.00;98833.63;6276189;22;19915;-88
2022/06/08 16:34:28;;;;;;;;;;;;;;;8.98;100.00;98834.59;6248373;22;19915;-91
2022/06/08 16:36:54;;;;;;;;;;;;;;;9.37;100.00;98836.97;6249624;22;19918;-89
2022/06/08 16:39:19;;;;;;;;;;;;;;;9.51;100.00;98833.59;6249785;22;20315;-89
2022/06/08 16:41:45;;;;;;;;;;;;;;;9.07;100.00;98834.97;6249930;22;20002;-90
2022/06/08 16:44:10;;;;;;;;;;;;;;;8.72;100.00;98834.16;6275712;22;19919;-89
2022/06/08 16:46:35;;;;;;;;;;;;;;;9.24;100.00;98841.19;6249110;22;19942;-88
2022/06/08 16:49:01;;;;;;;;;;;;;;;9.46;100.00;98840.91;6274121;22;19969;-87
2022/06/08 16:51:26;;;;;;;;;;;;;;;8.88;100.00;98840.34;6275359;22;20205;-87
2022/06/08 16:53:52;;;;;;;;;;;;;;;9.39;100.00;98844.81;6276635;22;19961;-90
2022/06/08 16:56:17;;;;;;;;;;;;;;;9.56;100.00;98842.13;6248261;22;19915;-90
2022/06/08 17:01:29;;;;;;;;;;;;;;;9.25;100.00;98849.06;6276106;22;20417;-94
2022/06/08 17:03:55;;;;;;;;;;;;;;;9.60;100.00;98853.38;6274516;22;19911;-89
2022/06/08 17:06:21;;;;;;;;;;;;;;;8.91;100.00;98860.50;6248433;22;20281;-90
2022/06/08 17:08:47;;;;;;;;;;;;;;;9.38;100.00;98856.31;6273795;22;19993;-89
2022/06/08 17:13:57;;;;;;;;;;;;;;;9.01;100.00;98863.53;6271595;22;20305;-91
2022/06/08 17:16:37;;;;;;;;;;;;;;;9.43;100.00;98878.09;6274308;22;20002;-92
2022/06/08 17:19:02;;;;;;;;;;;;;;;9.69;100.00;98874.06;6198056;22;20338;-92
2022/06/08 17:21:28;;;;;;;;;;;;;;;9.05;100.00;98873.00;6276564;22;19911;-93
2022/06/08 17:23:53;;;;;;;;;;;;;;;9.37;100.00;98868.69;6276487;22;19965;-91
2022/06/08 17:26:19;;;;;;;;;;;;;;;9.48;100.00;98873.41;6246005;22;19994;-91
2022/06/08 17:28:45;;;;;;;;;;;;;;;8.92;100.00;98872.78;6273068;22;19922;-90
2022/06/08 17:31:10;;;;;;;;;;;;;;;9.35;100.00;98875.84;6275641;22;20331;-90
2022/06/08 17:33:36;;;;;;;;;;;;;;;9.57;100.00;98866.78;6273798;22;19953;-91
2022/06/08 17:36:01;;;;;;;;;;;;;;;8.90;100.00;98867.56;6247219;22;19915;-89
2022/06/08 17:38:45;;;;;;;;;;;;;;;9.49;100.00;98869.81;6274934;22;19912;-89
2022/06/08 17:41:13;;;;;;;;;;;;;;;9.59;100.00;98868.41;6274560;22;19915;-93
2022/06/08 17:43:39;;;;;;;;;;;;;;;9.15;100.00;98871.59;6273944;22;19911;-89
2022/06/08 17:46:04;;;;;;;;;;;;;;;9.40;100.00;98868.53;6248302;22;19998;-90
2022/06/08 17:48:30;;;;;;;;;;;;;;;9.69;100.00;98866.13;6273974;22;19953;-90
2022/06/08 17:50:56;;;;;;;;;;;;;;;9.12;100.00;98863.81;6276235;22;19954;-91
2022/06/08 17:53:21;;;;;;;;;;;;;;;9.31;100.00;98874.28;6248080;22;19919;-90
2022/06/08 17:55:49;;;;;;;;;;;;;;;9.64;100.00;98874.31;6275884;22;19919;-89
2022/06/08 17:58:19;;;;;;;;;;;;;;;9.09;100.00;98875.44;6276406;22;19980;-91
2022/06/08 18:00:44;;;;;;;;;;;;;;;9.20;100.00;98877.50;6249285;22;19912;-90
2022/06/08 18:03:10;;;;;;;;;;;;;;;9.53;100.00;98878.47;6247062;22;19915;-89
2022/06/08 18:05:36;;;;;;;;;;;;;;;9.34;100.00;98875.94;6275724;22;19915;-90
2022/06/08 18:08:03;;;;;;;;;;;;;;;8.77;100.00;98879.66;6276262;22;20239;-91
2022/06/08 18:10:29;;;;;;;;;;;;;;;9.36;100.00;98876.69;6249506;22;19938;-88
2022/06/08 18:12:55;;;;;;;;;;;;;;;9.53;100.00;98873.19;6275672;22;19922;-90
2022/06/08 18:15:20;;;;;;;;;;;;;;;8.91;100.00;98873.69;6249738;22;19915;-90
2022/06/08 18:17:45;;;;;;;;;;;;;;;9.24;100.00;98873.78;6274016;22;19912;-90
2022/06/08 18:20:22;;;;;;;;;;;;;;;9.48;100.00;98886.66;6248412;22;19915;-90
2022/06/08 18:22:49;;;;;;;;;;;;;;;8.91;100.00;98879.84;6275241;22;19998;-90
2022/06/08 18:25:23;;;;;;;;;;;;;;;9.26;100.00;98871.88;6248452;22;19915;-89
2022/06/08 18:27:52;;;;;;;;;;;;;;;9.56;100.00;98876.50;6249013;22;20334;-91
2022/06/08 18:30:27;;;;;;;;;;;;;;;8.86;100.00;98876.56;6248680;22;20006;-90
2022/06/08 18:32:52;;;;;;;;;;;;;;;9.32;100.00;98877.78;6247616;22;20198;-91
2022/06/08 18:35:19;;;;;;;;;;;;;;;9.47;100.00;98884.91;6275889;22;19941;-91
2022/06/08 18:37:44;;;;;;;;;;;;;;;8.79;100.00;98882.22;6275989;22;19907;-91
2022/06/08 18:40:11;;;;;;;;;;;;;;;9.35;100.00;98888.19;6246904;22;19923;-89
2022/06/08 18:42:39;;;;;;;;;;;;;;;9.58;100.00;98893.13;6248174;22;19915;-90
2022/06/08 18:45:05;;;;;;;;;;;;;;;8.93;100.00;98898.25;6274662;22;19969;-90
2022/06/08 18:47:30;;;;;;;;;;;;;;;9.35;100.00;98885.56;6274161;22;19919;-89
2022/06/08 18:49:55;;;;;;;;;;;;;;;9.56;100.00;98902.97;6248734;22;19915;-90
2022/06/08 18:52:21;;;;;;;;;;;;;;;9.03;100.00;98896.00;6275135;22;19922;-89
2022/06/08 18:54:52;;;;;;;;;;;;;;;9.15;100.00;98895.38;6248184;22;20262;-89
2022/06/08 18:57:17;;;;;;;;;;;;;;;9.47;100.00;98906.06;6275214;22;19915;-88
2022/06/08 18:59:48;;;;;;;;;;;;;;;9.10;100.00;98905.34;6275712;22;19915;-91
2022/06/08 19:02:13;;;;;;;;;;;;;;;9.19;100.00;98914.56;6247598;22;19917;-91
2022/06/08 19:04:48;;;;;;;;;;;;;;;9.33;100.00;98917.38;6274303;22;19986;-89
2022/06/08 19:07:14;;;;;;;;;;;;;;;9.03;100.00;98917.13;6275656;22;20323;-89
2022/06/08 19:09:39;;;;;;;;;;;;;;;9.12;100.00;98921.13;6247981;22;19998;-90
2022/06/08 19:12:05;;;;;;;;;;;;;;;9.39;100.00;98924.97;6247801;22;19922;-89
2022/06/08 19:14:31;;;;;;;;;;;;;;;8.98;100.00;98930.56;6273936;22;19923;-90
2022/06/08 19:16:56;;;;;;;;;;;;;;;8.96;100.00;98937.72;6248431;22;19919;-90
2022/06/08 19:22:08;;;;;;;;;;;;;;;9.20;100.00;98946.22;6275661;22;19938;-90
2022/06/08 19:24:33;;;;;;;;;;;;;;;9.16;100.00;98944.69;6275073;22;19911;-90
2022/06/08 19:26:58;;;;;;;;;;;;;;;9.40;100.00;98939.06;6274572;22;20389;-90
2022/06/08 19:29:23;;;;;;;;;;;;;;;9.42;100.00;98938.03;6272393;22;19995;-90
2022/06/08 19:31:49;;;;;;;;;;;;;;;9.08;100.00;98947.69;6274101;22;20054;-90
2022/06/08 19:34:15;;;;;;;;;;;;;;;9.40;100.00;98942.56;6245358;22;19911;-89
2022/06/08 19:36:43;;;;;;;;;;;;;;;9.40;100.00;98937.28;6273221;22;20040;-89
2022/06/08 19:39:08;;;;;;;;;;;;;;;8.93;100.00;98952.88;6248113;22;19933;-90
2022/06/08 19:41:35;;;;;;;;;;;;;;;9.37;100.00;98947.16;6274713;22;19911;-90
2022/06/08 19:44:02;;;;;;;;;;;;;;;9.57;100.00;98954.94;6275779;22;20649;-89
2022/06/08 19:46:30;;;;;;;;;;;;;;;8.80;100.00;98964.03;6248723;22;19991;-89
2022/06/08 19:48:55;;;;;;;;;;;;;;;9.25;100.00;98965.38;6274296;22;19958;-90
2022/06/08 19:51:21;;;;;;;;;;;;;;;9.61;100.00;98969.69;6247877;22;20578;-89
2022/06/08 19:53:46;;;;;;;;;;;;;;;8.84;100.00;98988.53;6275849;22;20273;-89
2022/06/08 19:56:13;;;;;;;;;;;;;;;9.27;100.00;98981.16;6247897;22;19916;-90
2022/06/08 19:58:41;;;;;;;;;;;;;;;9.57;100.00;98981.38;6248655;22;19916;-90
2022/06/08 20:01:07;;;;;;;;;;;;;;;8.90;100.00;98997.03;6248237;22;19998;-91
2022/06/08 20:03:33;;;;;;;;;;;;;;;9.26;100.00;98993.47;6274417;22;19960;-90
2022/06/08 20:05:59;;;;;;;;;;;;;;;9.47;100.00;98995.13;6247278;22;19941;-89
2022/06/08 20:08:25;;;;;;;;;;;;;;;8.92;100.00;99004.88;6248446;22;19943;-90
2022/06/08 20:10:51;;;;;;;;;;;;;;;9.17;100.00;98998.38;6274778;22;19922;-89
2022/06/08 20:13:17;;;;;;;;;;;;;;;9.51;100.00;99008.13;6274555;22;19911;-89
2022/06/08 20:15:45;;;;;;;;;;;;;;;9.09;100.00;99014.63;6274577;22;19916;-90
2022/06/08 20:18:11;;;;;;;;;;;;;;;9.12;100.00;99009.19;6274100;22;20380;-89
2022/06/08 20:20:38;;;;;;;;;;;;;;;9.45;100.00;99013.72;6274439;22;19915;-89
2022/06/08 20:23:04;;;;;;;;;;;;;;;9.10;100.00;99018.97;6247547;22;19922;-90
2022/06/08 20:25:30;;;;;;;;;;;;;;;9.04;100.00;99016.63;6274617;22;19912;-90
2022/06/08 20:27:56;;;;;;;;;;;;;;;9.47;100.00;99035.66;6273899;22;19957;-89
2022/06/08 20:30:24;;;;;;;;;;;;;;;9.41;100.00;99049.19;6274570;22;19911;-89